createdAt,value
2022-10-09T07:24:06.164Z,7.10
2022-10-09T08:26:46.605Z,8.35
2022-10-09T08:28:18.993Z,7.13
2022-10-09T08:29:51.079Z,8.95
2022-10-09T08:31:30.962Z,5.97
2022-10-09T08:33:06.504Z,6.95
2022-10-09T08:34:41.071Z,5.68
2022-10-09T08:36:15.592Z,5.85
2022-10-09T08:37:47.714Z,6.35
2022-10-09T08:39:19.598Z,5.47
2022-10-09T08:40:58.122Z,5.50
2022-10-09T08:42:44.822Z,6.10
2022-10-09T08:44:34.684Z,5.95
2022-10-09T08:46:21.054Z,6.28
2022-10-09T08:48:14.245Z,6.45
2022-10-09T08:50:06.265Z,6.47
2022-10-09T08:51:41.550Z,6.18
2022-10-09T08:53:27.805Z,6.25
2022-10-09T08:55:22.017Z,5.65
2022-10-09T08:57:07.525Z,6.18
2022-10-09T08:59:27.067Z,5.95
2022-10-09T09:01:08.020Z,6.18
2022-10-09T09:03:10.473Z,5.75
2022-10-09T09:05:06.585Z,5.95
2022-10-09T09:07:09.057Z,6.25
2022-10-09T09:15:47.771Z,5.57
2022-10-09T09:16:52.361Z,5.80
2022-10-09T09:18:43.009Z,5.72
2022-10-09T09:18:43.015Z,5.57
2022-10-09T09:20:33.507Z,5.55
2022-10-09T09:22:12.267Z,5.40
2022-10-09T09:23:51.751Z,4.93
2022-10-09T09:25:31.308Z,5.50
2022-10-09T09:27:07.675Z,6.15
2022-10-09T09:28:58.560Z,5.18
2022-10-09T09:30:33.937Z,4.75
2022-10-09T09:32:05.920Z,5.10
2022-10-09T09:33:53.239Z,6.00
2022-10-09T09:35:25.235Z,4.88
2022-10-09T09:37:00.546Z,5.40
2022-10-09T09:38:32.537Z,5.10
2022-10-09T09:42:00.638Z,5.60
2022-10-09T09:43:34.784Z,4.35
2022-10-09T09:45:07.366Z,4.53
2022-10-09T09:46:42.189Z,4.78
2022-10-09T09:48:20.545Z,4.22
2022-10-09T09:49:56.701Z,4.30
2022-10-09T09:51:36.897Z,3.85
2022-10-09T09:53:15.921Z,4.13
2022-10-09T09:54:48.647Z,3.60
2022-10-09T09:57:52.384Z,3.90
2022-10-09T09:59:30.125Z,3.37
2022-10-09T10:01:03.635Z,3.95
2022-10-09T10:02:38.239Z,3.42
2022-10-09T10:04:20.324Z,3.40
2022-10-09T10:05:52.404Z,3.45
2022-10-09T10:07:35.503Z,3.60
2022-10-09T10:09:14.385Z,3.78
2022-10-09T10:10:49.644Z,3.17
2022-10-09T10:12:21.391Z,2.88
2022-10-09T10:14:01.138Z,2.97
2022-10-09T10:15:54.933Z,3.10
2022-10-09T10:17:29.366Z,2.85
2022-10-09T10:19:01.252Z,2.53
2022-10-09T10:20:34.258Z,2.60
2022-10-09T10:22:07.715Z,2.40
2022-10-09T10:23:48.851Z,2.22
2022-10-09T10:25:22.218Z,2.70
2022-10-09T10:27:03.688Z,2.28
2022-10-09T10:28:46.819Z,2.58
2022-10-09T10:30:23.876Z,2.25
2022-10-09T10:31:56.647Z,2.60
2022-10-09T10:35:19.262Z,2.33
2022-10-09T10:37:05.298Z,2.03
2022-10-09T10:38:46.813Z,2.28
2022-10-09T10:40:53.828Z,2.83
2022-10-09T10:44:55.097Z,2.53
2022-10-09T10:46:52.331Z,1.83
2022-10-09T10:48:40.187Z,2.58
2022-10-09T10:50:15.731Z,3.40
2022-10-09T10:51:53.952Z,2.30
2022-10-09T10:53:37.942Z,2.20
2022-10-09T10:55:09.870Z,2.00
2022-10-09T10:56:51.501Z,2.13
2022-10-09T11:00:46.161Z,2.28
2022-10-09T11:02:40.959Z,2.35
2022-10-09T11:04:28.308Z,2.78
2022-10-09T11:06:06.453Z,2.47
2022-10-09T11:07:50.028Z,2.58
2022-10-09T11:09:43.895Z,2.60
2022-10-09T11:24:01.514Z,1.70
2022-10-09T11:25:45.112Z,2.13
2022-10-09T11:27:57.242Z,2.05
2022-10-09T11:30:37.474Z,1.92
2022-10-09T11:54:14.786Z,1.70
2022-10-09T11:55:48.521Z,1.55
2022-10-09T11:59:45.244Z,1.58
2022-10-09T12:01:30.488Z,1.50
2022-10-09T15:26:45.233Z,1.05
2022-10-09T15:28:29.776Z,1.00
2022-10-09T15:32:26.726Z,1.02
2022-10-09T15:34:04.094Z,1.38
2022-10-09T15:35:40.969Z,1.80
2022-10-09T15:37:18.017Z,1.10
2022-10-09T17:29:13.959Z,2.10
2022-10-09T17:48:18.190Z,2.08
2022-10-09T17:52:13.052Z,1.75
2022-10-09T18:12:15.934Z,2.70
2022-10-09T18:14:14.393Z,2.63
2022-10-09T18:15:53.010Z,2.85
2022-10-09T18:17:35.618Z,2.40
2022-10-09T18:19:14.288Z,2.20
2022-10-09T18:21:15.432Z,2.55
2022-10-09T18:22:57.660Z,3.25
2022-10-09T18:24:35.133Z,2.70
2022-10-09T18:26:19.943Z,1.95
2022-10-09T18:27:54.843Z,2.45
2022-10-09T18:29:35.620Z,2.30
2022-10-09T18:31:12.567Z,2.13
2022-10-09T18:32:50.418Z,2.75
2022-10-09T18:34:23.082Z,2.50
2022-10-09T18:36:01.949Z,2.75
2022-10-09T18:37:38.939Z,2.47
2022-10-09T18:39:13.568Z,2.95
2022-10-09T18:40:48.178Z,2.55
2022-10-09T18:42:21.218Z,2.40
2022-10-09T18:46:34.496Z,2.53
2022-10-09T18:58:49.134Z,3.10
2022-10-09T19:06:00.128Z,2.85
2022-10-09T19:07:58.368Z,2.20
2022-10-09T19:12:10.316Z,1.92
